»·PEaware :: EJM3 KLAS-KBUR

EJM3 :: KLAS-KBUR

FLIGHT INFORMATION

Flight Status: Arrived
Operator: Unknown
More flights by this operator :: More flights under this callsign
Pilot: Cody B. (17747)
Aircraft: BOEING 737-800
(B738)
More flights by this aircraft type
Origin: KLAS McCarran Intl
United States
Destination: KBUR Bob Hope-Burbank
United States
More flights between these airports :: More routes between these airports
Route: BOACH8 WHIGG KREME JANNY5
File this flight plan on PilotEdge
Remarks: RMK / SIMBRIEF
Altitude:
(Current/Filed)
28,000ft
Speed:
(Current/Filed)
469kts
Departed: 21-May-20 11:05 AM
Arrived: 21-May-20 11:52 AM
Distance/Time
Traveled:
194nm/0:47
Distance/Time
To Go:
Arrived

Flight Plot

Page will automatically refresh every two minutes.


Map Options




Map Legend


Flown Route
Filed Route
Departure Airport
Arrival Airport
Navaid (VOR, NDB)
Fix

Horizontal Profiles

Position Reports

Time Latitude Longitude Heading Altitude Ground
Speed
21-May-20 10:00 36.089436 -115.166190 271 2145ft 0kts
21-May-20 10:01 36.089436 -115.166190 271 2145ft 0kts
21-May-20 10:02 36.089436 -115.166190 271 2145ft 0kts
21-May-20 10:03 36.089437 -115.166190 271 2145ft 0kts
21-May-20 10:04 36.089437 -115.166190 271 2145ft 0kts
21-May-20 10:05 36.089437 -115.166190 271 2145ft 0kts
21-May-20 10:06 36.089437 -115.166190 271 2145ft 0kts
21-May-20 10:07 36.089437 -115.166190 271 2145ft 0kts
21-May-20 10:08 36.089437 -115.166190 271 2145ft 0kts
21-May-20 10:10 36.089437 -115.166190 271 2145ft 0kts
21-May-20 10:11 36.089437 -115.166190 271 2145ft 0kts
21-May-20 10:12 36.089437 -115.166190 271 2145ft 0kts
21-May-20 10:13 36.089437 -115.166190 271 2145ft 0kts
21-May-20 10:14 36.089437 -115.166190 271 2145ft 0kts
21-May-20 10:15 36.089437 -115.166190 271 2145ft 0kts
21-May-20 10:16 36.089437 -115.166190 271 2145ft 0kts
21-May-20 10:17 36.089437 -115.166190 271 2145ft 0kts
21-May-20 10:18 36.089437 -115.166190 271 2145ft 0kts
21-May-20 10:19 36.089437 -115.166190 271 2145ft 0kts
21-May-20 10:20 36.089437 -115.166190 271 2145ft 0kts
21-May-20 10:21 36.089437 -115.166190 271 2145ft 0kts
21-May-20 10:22 36.089437 -115.166190 271 2145ft 0kts
21-May-20 10:23 36.089437 -115.166190 271 2145ft 0kts
21-May-20 10:24 36.089437 -115.166190 271 2145ft 0kts
21-May-20 10:25 36.089437 -115.166190 271 2145ft 0kts
21-May-20 10:25 36.089437 -115.166190 271 2145ft 0kts
21-May-20 10:27 36.089437 -115.166190 271 2145ft 0kts
21-May-20 10:27 36.089437 -115.166190 271 2145ft 0kts
21-May-20 10:29 36.089437 -115.166190 271 2145ft 0kts
21-May-20 10:30 36.089437 -115.166190 271 2145ft 0kts
21-May-20 10:30 36.089437 -115.166190 271 2145ft 0kts
21-May-20 10:32 36.089437 -115.166190 271 2145ft 0kts
21-May-20 10:32 36.089437 -115.166190 271 2145ft 0kts
21-May-20 10:33 36.089437 -115.166190 271 2145ft 0kts
21-May-20 10:34 36.089437 -115.166190 271 2145ft 0kts
21-May-20 10:35 36.089437 -115.166190 271 2145ft 0kts
21-May-20 10:36 36.089437 -115.166190 271 2145ft 0kts
21-May-20 10:37 36.089437 -115.166190 271 2145ft 0kts
21-May-20 10:38 36.089437 -115.166190 271 2145ft 0kts
21-May-20 10:39 36.089437 -115.166190 271 2145ft 0kts
21-May-20 10:40 36.089437 -115.166190 271 2145ft 0kts
21-May-20 10:41 36.089437 -115.166190 271 2145ft 0kts
21-May-20 10:42 36.089437 -115.166190 271 2145ft 0kts
21-May-20 10:43 36.089437 -115.166190 271 2145ft 0kts
21-May-20 10:44 36.089437 -115.166190 271 2145ft 0kts
21-May-20 10:45 36.089437 -115.166190 271 2145ft 0kts
21-May-20 10:46 36.089437 -115.166190 271 2145ft 0kts
21-May-20 10:47 36.089437 -115.166190 271 2145ft 0kts
21-May-20 10:48 36.089437 -115.166190 271 2145ft 0kts
21-May-20 10:49 36.089437 -115.166190 271 2145ft 0kts
21-May-20 10:50 36.089436 -115.166189 271 2145ft 0kts
21-May-20 10:51 36.089540 -115.165622 215 2143ft 2kts
21-May-20 10:52 36.089849 -115.165564 171 2142ft 0kts
21-May-20 10:53 36.089848 -115.165564 171 2142ft 0kts
21-May-20 10:54 36.089848 -115.165564 171 2142ft 0kts
21-May-20 10:55 36.089573 -115.165458 126 2143ft 2kts
21-May-20 10:56 36.086945 -115.166124 204 2152ft 16kts
21-May-20 10:57 36.083101 -115.168305 205 2167ft 12kts
21-May-20 10:58 36.079313 -115.170481 205 2181ft 16kts
21-May-20 10:59 36.077383 -115.171224 180 2189ft 0kts
21-May-20 11:00 36.077383 -115.171224 180 2189ft 0kts
21-May-20 11:01 36.077384 -115.171224 180 2189ft 0kts
21-May-20 11:02 36.077201 -115.171226 180 2190ft 3kts
21-May-20 11:03 36.076372 -115.168234 89 2183ft 37kts
21-May-20 11:04 36.076183 -115.122459 90 3429ft 167kts
21-May-20 11:05 36.076517 -115.052579 78 4471ft 255kts
21-May-20 11:06 36.072111 -114.962858 132 6915ft 293kts
21-May-20 11:07 35.999005 -114.920671 174 9867ft 301kts
21-May-20 11:08 35.918916 -114.954241 222 11608ft 351kts
21-May-20 11:09 35.853855 -115.033895 226 14135ft 365kts
21-May-20 11:10 35.780650 -115.136631 233 17131ft 376kts
21-May-20 11:11 35.714693 -115.238759 234 19678ft 387kts
21-May-20 11:12 35.644290 -115.340483 230 22000ft 397kts
21-May-20 11:13 35.569175 -115.441635 231 24076ft 405kts
21-May-20 11:14 35.492025 -115.543049 229 25956ft 414kts
21-May-20 11:15 35.408336 -115.642414 229 27589ft 422kts
21-May-20 11:16 35.325726 -115.740394 229 28041ft 434kts
21-May-20 11:17 35.238137 -115.844042 229 28039ft 440kts
21-May-20 11:18 35.153055 -115.944299 230 28045ft 415kts
21-May-20 11:19 35.069772 -116.042381 230 28061ft 415kts
21-May-20 11:20 34.987043 -116.139476 230 28084ft 417kts
21-May-20 11:21 34.915311 -116.247184 244 28092ft 405kts
21-May-20 11:22 34.863758 -116.364899 248 27137ft 409kts
21-May-20 11:23 34.815874 -116.485013 249 24596ft 388kts
21-May-20 11:24 34.786031 -116.606023 262 23128ft 377kts
21-May-20 11:25 34.771252 -116.730701 264 22150ft 366kts
21-May-20 11:26 34.758448 -116.856839 264 22132ft 374kts
21-May-20 11:27 34.745706 -116.982404 264 22132ft 373kts
21-May-20 11:28 34.732961 -117.108029 264 22126ft 373kts
21-May-20 11:29 34.720195 -117.233060 264 22125ft 373kts
21-May-20 11:30 34.707407 -117.357014 264 20999ft 367kts
21-May-20 11:31 34.694781 -117.477661 264 18653ft 355kts
21-May-20 11:32 34.681839 -117.596484 264 17655ft 363kts
21-May-20 11:33 34.669146 -117.715499 263 16595ft 347kts
21-May-20 11:34 34.657037 -117.829385 263 14613ft 336kts
21-May-20 11:35 34.644721 -117.942807 263 13199ft 348kts
21-May-20 11:36 34.632516 -118.054012 262 11273ft 334kts
21-May-20 11:37 34.610976 -118.156220 255 10468ft 298kts
21-May-20 11:38 34.590368 -118.248597 254 9508ft 282kts
21-May-20 11:39 34.569824 -118.340575 254 8212ft 282kts
21-May-20 11:40 34.542523 -118.427833 231 7994ft 280kts
21-May-20 11:41 34.482674 -118.485330 211 7991ft 276kts
21-May-20 11:42 34.418875 -118.534619 211 7097ft 273kts
21-May-20 11:43 34.354670 -118.578330 197 6089ft 262kts
21-May-20 11:44 34.288628 -118.604026 196 4942ft 239kts
21-May-20 11:45 34.232193 -118.606273 129 3763ft 201kts
21-May-20 11:46 34.200223 -118.560524 123 2981ft 176kts
21-May-20 11:47 34.199513 -118.507935 90 2976ft 163kts
21-May-20 11:48 34.198927 -118.456924 90 2237ft 160kts
21-May-20 11:49 34.198321 -118.404780 89 1425ft 155kts
21-May-20 11:50 34.197758 -118.357699 91 788ft 104kts
21-May-20 11:51 34.198693 -118.351174 288 788ft 3kts
21-May-20 11:52 34.198827 -118.356137 271 788ft 24kts
21-May-20 11:53 34.199249 -118.360112 4 788ft 2kts
21-May-20 11:54 34.199487 -118.358991 87 788ft 8kts
21-May-20 11:55 34.200139 -118.358694 265 788ft 0kts
21-May-20 11:56 34.200105 -118.358822 251 788ft 0kts
21-May-20 11:57 34.200105 -118.358822 251 788ft 0kts
21-May-20 11:58 34.200105 -118.358822 251 788ft 0kts
21-May-20 11:59 34.200105 -118.358822 251 788ft 0kts
21-May-20 12:00 34.200105 -118.358822 251 788ft 0kts
21-May-20 12:01 34.200105 -118.358822 251 788ft 0kts
21-May-20 12:02 34.200105 -118.358822 251 788ft 0kts
21-May-20 12:03 34.200105 -118.358822 251 788ft 0kts
21-May-20 12:04 34.200235 -118.358730 255 784ft 0kts
21-May-20 12:05 34.200235 -118.358730 255 784ft 0kts

Navigation Log

Ident Type
Flight plan parsing failed, navigation log unavailable